sensor_id;sensor_type;location;lat;lon;timestamp;P1;durP1;ratioP1;P2;durP2;ratioP2
50821;SDS011;36794;51.212;6.980;2023-07-13T00:00:18;7.68;;;1.10;;
50821;SDS011;36794;51.212;6.980;2023-07-13T00:02:45;6.95;;;1.20;;
50821;SDS011;36794;51.212;6.980;2023-07-13T00:05:11;5.43;;;0.95;;
50821;SDS011;36794;51.212;6.980;2023-07-13T00:07:37;5.38;;;1.10;;
50821;SDS011;36794;51.212;6.980;2023-07-13T00:10:03;4.38;;;1.05;;
50821;SDS011;36794;51.212;6.980;2023-07-13T00:12:32;5.22;;;1.05;;
50821;SDS011;36794;51.212;6.980;2023-07-13T00:15:00;6.35;;;1.30;;
50821;SDS011;36794;51.212;6.980;2023-07-13T00:17:26;5.50;;;1.33;;
50821;SDS011;36794;51.212;6.980;2023-07-13T00:19:53;4.50;;;1.00;;
50821;SDS011;36794;51.212;6.980;2023-07-13T00:22:20;6.25;;;0.93;;
50821;SDS011;36794;51.212;6.980;2023-07-13T00:24:46;7.05;;;1.35;;
50821;SDS011;36794;51.212;6.980;2023-07-13T00:27:13;5.85;;;1.33;;
50821;SDS011;36794;51.212;6.980;2023-07-13T00:29:39;4.80;;;1.20;;
50821;SDS011;36794;51.212;6.980;2023-07-13T00:32:05;8.50;;;1.15;;
50821;SDS011;36794;51.212;6.980;2023-07-13T00:34:31;6.47;;;1.05;;
50821;SDS011;36794;51.212;6.980;2023-07-13T00:36:57;6.25;;;1.30;;
50821;SDS011;36794;51.212;6.980;2023-07-13T00:39:23;4.13;;;1.02;;
50821;SDS011;36794;51.212;6.980;2023-07-13T00:41:49;4.88;;;1.15;;
50821;SDS011;36794;51.212;6.980;2023-07-13T00:44:15;6.07;;;1.40;;
50821;SDS011;36794;51.212;6.980;2023-07-13T00:46:42;5.85;;;1.23;;
50821;SDS011;36794;51.212;6.980;2023-07-13T00:49:09;8.30;;;1.55;;
50821;SDS011;36794;51.212;6.980;2023-07-13T00:51:37;9.48;;;1.30;;
50821;SDS011;36794;51.212;6.980;2023-07-13T00:54:06;7.07;;;1.40;;
50821;SDS011;36794;51.212;6.980;2023-07-13T00:56:33;7.57;;;1.45;;
50821;SDS011;36794;51.212;6.980;2023-07-13T00:58:59;7.97;;;1.20;;
50821;SDS011;36794;51.212;6.980;2023-07-13T01:01:26;7.22;;;1.13;;
50821;SDS011;36794;51.212;6.980;2023-07-13T01:03:52;6.65;;;1.23;;
50821;SDS011;36794;51.212;6.980;2023-07-13T01:06:19;7.32;;;1.02;;
50821;SDS011;36794;51.212;6.980;2023-07-13T01:08:45;5.70;;;0.95;;
50821;SDS011;36794;51.212;6.980;2023-07-13T01:11:11;8.15;;;1.10;;
50821;SDS011;36794;51.212;6.980;2023-07-13T01:13:36;6.97;;;1.20;;
50821;SDS011;36794;51.212;6.980;2023-07-13T01:16:04;5.03;;;1.30;;
50821;SDS011;36794;51.212;6.980;2023-07-13T01:18:33;10.18;;;1.00;;
50821;SDS011;36794;51.212;6.980;2023-07-13T01:21:03;6.32;;;1.08;;
50821;SDS011;36794;51.212;6.980;2023-07-13T01:23:30;6.30;;;1.17;;
50821;SDS011;36794;51.212;6.980;2023-07-13T01:25:56;9.35;;;1.15;;
50821;SDS011;36794;51.212;6.980;2023-07-13T01:28:23;4.78;;;1.00;;
50821;SDS011;36794;51.212;6.980;2023-07-13T01:30:52;6.72;;;0.93;;
50821;SDS011;36794;51.212;6.980;2023-07-13T01:33:18;5.80;;;0.98;;
50821;SDS011;36794;51.212;6.980;2023-07-13T01:35:44;4.57;;;1.00;;
50821;SDS011;36794;51.212;6.980;2023-07-13T01:38:11;3.88;;;1.10;;
50821;SDS011;36794;51.212;6.980;2023-07-13T01:40:37;6.85;;;0.90;;
50821;SDS011;36794;51.212;6.980;2023-07-13T01:43:04;7.03;;;1.33;;
50821;SDS011;36794;51.212;6.980;2023-07-13T01:45:30;3.85;;;1.10;;
50821;SDS011;36794;51.212;6.980;2023-07-13T01:47:56;6.53;;;1.33;;
50821;SDS011;36794;51.212;6.980;2023-07-13T01:50:23;5.72;;;1.33;;
50821;SDS011;36794;51.212;6.980;2023-07-13T01:52:49;9.48;;;1.60;;
50821;SDS011;36794;51.212;6.980;2023-07-13T01:55:15;6.03;;;1.13;;
50821;SDS011;36794;51.212;6.980;2023-07-13T01:57:41;5.70;;;1.13;;
50821;SDS011;36794;51.212;6.980;2023-07-13T02:00:08;8.07;;;1.20;;
50821;SDS011;36794;51.212;6.980;2023-07-13T02:02:35;6.40;;;1.20;;
50821;SDS011;36794;51.212;6.980;2023-07-13T02:05:01;6.53;;;1.20;;
50821;SDS011;36794;51.212;6.980;2023-07-13T02:07:26;3.63;;;1.10;;
50821;SDS011;36794;51.212;6.980;2023-07-13T02:09:52;6.22;;;0.90;;
50821;SDS011;36794;51.212;6.980;2023-07-13T02:12:18;8.05;;;1.60;;
50821;SDS011;36794;51.212;6.980;2023-07-13T02:14:44;6.90;;;1.75;;
50821;SDS011;36794;51.212;6.980;2023-07-13T02:17:10;4.75;;;1.17;;
50821;SDS011;36794;51.212;6.980;2023-07-13T02:19:36;10.30;;;1.52;;
50821;SDS011;36794;51.212;6.980;2023-07-13T02:22:02;4.32;;;1.30;;
50821;SDS011;36794;51.212;6.980;2023-07-13T02:24:28;6.32;;;1.15;;
50821;SDS011;36794;51.212;6.980;2023-07-13T02:26:54;9.07;;;1.58;;
50821;SDS011;36794;51.212;6.980;2023-07-13T02:29:20;3.95;;;0.77;;
50821;SDS011;36794;51.212;6.980;2023-07-13T02:31:46;6.43;;;1.23;;
50821;SDS011;36794;51.212;6.980;2023-07-13T02:34:13;4.70;;;1.00;;
50821;SDS011;36794;51.212;6.980;2023-07-13T02:36:39;5.20;;;1.25;;
50821;SDS011;36794;51.212;6.980;2023-07-13T02:39:05;10.70;;;1.00;;
50821;SDS011;36794;51.212;6.980;2023-07-13T02:41:31;5.88;;;1.00;;
50821;SDS011;36794;51.212;6.980;2023-07-13T02:44:01;6.40;;;1.17;;
50821;SDS011;36794;51.212;6.980;2023-07-13T02:46:32;7.63;;;1.45;;
50821;SDS011;36794;51.212;6.980;2023-07-13T02:48:58;8.73;;;1.67;;
50821;SDS011;36794;51.212;6.980;2023-07-13T02:51:24;5.65;;;1.30;;
50821;SDS011;36794;51.212;6.980;2023-07-13T02:53:51;4.45;;;1.02;;
50821;SDS011;36794;51.212;6.980;2023-07-13T02:56:17;7.47;;;1.17;;
50821;SDS011;36794;51.212;6.980;2023-07-13T02:58:44;4.40;;;1.25;;
50821;SDS011;36794;51.212;6.980;2023-07-13T03:01:10;7.45;;;1.60;;
50821;SDS011;36794;51.212;6.980;2023-07-13T03:03:36;4.72;;;0.98;;
50821;SDS011;36794;51.212;6.980;2023-07-13T03:06:03;6.45;;;1.08;;
50821;SDS011;36794;51.212;6.980;2023-07-13T03:08:30;6.47;;;1.30;;
50821;SDS011;36794;51.212;6.980;2023-07-13T03:11:12;6.57;;;1.08;;
50821;SDS011;36794;51.212;6.980;2023-07-13T03:13:39;5.18;;;1.05;;
50821;SDS011;36794;51.212;6.980;2023-07-13T03:16:06;7.80;;;1.55;;
50821;SDS011;36794;51.212;6.980;2023-07-13T03:18:32;4.32;;;1.00;;
50821;SDS011;36794;51.212;6.980;2023-07-13T03:20:58;10.80;;;1.55;;
50821;SDS011;36794;51.212;6.980;2023-07-13T03:23:24;7.22;;;1.13;;
50821;SDS011;36794;51.212;6.980;2023-07-13T03:25:50;8.60;;;1.55;;
50821;SDS011;36794;51.212;6.980;2023-07-13T03:28:26;7.25;;;1.10;;
50821;SDS011;36794;51.212;6.980;2023-07-13T03:30:58;5.15;;;1.25;;
50821;SDS011;36794;51.212;6.980;2023-07-13T03:33:25;8.20;;;1.23;;
50821;SDS011;36794;51.212;6.980;2023-07-13T03:35:50;4.47;;;0.95;;
50821;SDS011;36794;51.212;6.980;2023-07-13T03:38:16;7.18;;;1.48;;
50821;SDS011;36794;51.212;6.980;2023-07-13T03:40:42;4.63;;;1.25;;
50821;SDS011;36794;51.212;6.980;2023-07-13T03:43:08;5.38;;;1.58;;
50821;SDS011;36794;51.212;6.980;2023-07-13T03:45:34;5.53;;;1.10;;
50821;SDS011;36794;51.212;6.980;2023-07-13T03:48:00;4.90;;;1.38;;
50821;SDS011;36794;51.212;6.980;2023-07-13T03:50:26;7.05;;;1.10;;
50821;SDS011;36794;51.212;6.980;2023-07-13T03:52:52;8.13;;;1.35;;
50821;SDS011;36794;51.212;6.980;2023-07-13T03:55:18;7.45;;;1.13;;
50821;SDS011;36794;51.212;6.980;2023-07-13T03:57:44;9.15;;;1.15;;
50821;SDS011;36794;51.212;6.980;2023-07-13T04:00:10;7.65;;;1.10;;
50821;SDS011;36794;51.212;6.980;2023-07-13T04:02:36;5.22;;;1.10;;
50821;SDS011;36794;51.212;6.980;2023-07-13T04:05:02;8.60;;;1.23;;
50821;SDS011;36794;51.212;6.980;2023-07-13T04:07:28;9.52;;;1.50;;
50821;SDS011;36794;51.212;6.980;2023-07-13T04:09:54;7.10;;;1.13;;
50821;SDS011;36794;51.212;6.980;2023-07-13T04:12:20;5.53;;;1.23;;
50821;SDS011;36794;51.212;6.980;2023-07-13T04:14:46;8.00;;;1.40;;
50821;SDS011;36794;51.212;6.980;2023-07-13T04:17:12;6.60;;;1.15;;
50821;SDS011;36794;51.212;6.980;2023-07-13T04:19:38;11.00;;;1.30;;
50821;SDS011;36794;51.212;6.980;2023-07-13T04:22:04;6.47;;;1.58;;
50821;SDS011;36794;51.212;6.980;2023-07-13T04:24:30;7.43;;;1.20;;
50821;SDS011;36794;51.212;6.980;2023-07-13T04:26:56;10.70;;;1.35;;
50821;SDS011;36794;51.212;6.980;2023-07-13T04:29:24;8.05;;;1.30;;
50821;SDS011;36794;51.212;6.980;2023-07-13T04:31:50;6.13;;;1.23;;
50821;SDS011;36794;51.212;6.980;2023-07-13T04:34:16;7.00;;;1.33;;
50821;SDS011;36794;51.212;6.980;2023-07-13T04:36:42;8.02;;;1.65;;
50821;SDS011;36794;51.212;6.980;2023-07-13T04:39:08;4.18;;;0.90;;
50821;SDS011;36794;51.212;6.980;2023-07-13T04:41:34;6.20;;;1.13;;
50821;SDS011;36794;51.212;6.980;2023-07-13T04:44:00;3.53;;;1.00;;
50821;SDS011;36794;51.212;6.980;2023-07-13T04:46:27;9.27;;;1.48;;
50821;SDS011;36794;51.212;6.980;2023-07-13T04:48:54;6.32;;;1.25;;
50821;SDS011;36794;51.212;6.980;2023-07-13T04:51:20;5.35;;;1.00;;
50821;SDS011;36794;51.212;6.980;2023-07-13T04:53:46;7.07;;;1.63;;
50821;SDS011;36794;51.212;6.980;2023-07-13T04:56:12;10.77;;;1.27;;
50821;SDS011;36794;51.212;6.980;2023-07-13T04:58:38;5.00;;;1.55;;
50821;SDS011;36794;51.212;6.980;2023-07-13T05:01:05;9.10;;;1.15;;
50821;SDS011;36794;51.212;6.980;2023-07-13T05:03:31;5.07;;;1.02;;
50821;SDS011;36794;51.212;6.980;2023-07-13T05:05:59;7.05;;;1.08;;
50821;SDS011;36794;51.212;6.980;2023-07-13T05:08:25;5.65;;;1.40;;
50821;SDS011;36794;51.212;6.980;2023-07-13T05:10:51;6.75;;;1.50;;
50821;SDS011;36794;51.212;6.980;2023-07-13T05:13:18;6.97;;;1.17;;
50821;SDS011;36794;51.212;6.980;2023-07-13T05:15:44;7.95;;;1.23;;
50821;SDS011;36794;51.212;6.980;2023-07-13T05:18:10;5.25;;;1.02;;
50821;SDS011;36794;51.212;6.980;2023-07-13T05:20:36;11.27;;;1.20;;
50821;SDS011;36794;51.212;6.980;2023-07-13T05:23:02;8.15;;;1.60;;
50821;SDS011;36794;51.212;6.980;2023-07-13T05:25:28;9.40;;;1.63;;
50821;SDS011;36794;51.212;6.980;2023-07-13T05:27:54;7.13;;;1.20;;
50821;SDS011;36794;51.212;6.980;2023-07-13T05:30:20;5.45;;;1.10;;
50821;SDS011;36794;51.212;6.980;2023-07-13T05:32:46;8.15;;;1.75;;
50821;SDS011;36794;51.212;6.980;2023-07-13T05:35:12;8.20;;;1.30;;
50821;SDS011;36794;51.212;6.980;2023-07-13T05:37:38;5.72;;;1.17;;
50821;SDS011;36794;51.212;6.980;2023-07-13T05:40:04;7.18;;;1.13;;
50821;SDS011;36794;51.212;6.980;2023-07-13T05:42:30;6.80;;;1.38;;
50821;SDS011;36794;51.212;6.980;2023-07-13T05:44:56;6.80;;;1.30;;
50821;SDS011;36794;51.212;6.980;2023-07-13T05:47:22;8.75;;;1.50;;
50821;SDS011;36794;51.212;6.980;2023-07-13T05:49:48;9.27;;;1.33;;
50821;SDS011;36794;51.212;6.980;2023-07-13T05:52:14;10.88;;;1.67;;
50821;SDS011;36794;51.212;6.980;2023-07-13T05:54:40;10.88;;;1.70;;
50821;SDS011;36794;51.212;6.980;2023-07-13T05:57:06;7.32;;;1.83;;
50821;SDS011;36794;51.212;6.980;2023-07-13T05:59:32;9.13;;;1.52;;
50821;SDS011;36794;51.212;6.980;2023-07-13T06:01:58;5.72;;;1.30;;
50821;SDS011;36794;51.212;6.980;2023-07-13T06:04:24;11.35;;;1.75;;
50821;SDS011;36794;51.212;6.980;2023-07-13T06:06:50;6.07;;;2.00;;
50821;SDS011;36794;51.212;6.980;2023-07-13T06:09:16;8.85;;;1.60;;
50821;SDS011;36794;51.212;6.980;2023-07-13T06:11:42;12.15;;;1.35;;
50821;SDS011;36794;51.212;6.980;2023-07-13T06:14:08;11.00;;;1.75;;
50821;SDS011;36794;51.212;6.980;2023-07-13T06:16:34;5.25;;;1.23;;
50821;SDS011;36794;51.212;6.980;2023-07-13T06:19:00;5.53;;;1.27;;
50821;SDS011;36794;51.212;6.980;2023-07-13T06:21:26;7.43;;;1.63;;
50821;SDS011;36794;51.212;6.980;2023-07-13T06:23:52;10.18;;;1.98;;
50821;SDS011;36794;51.212;6.980;2023-07-13T06:26:19;8.20;;;1.90;;
50821;SDS011;36794;51.212;6.980;2023-07-13T06:28:45;11.05;;;1.73;;
50821;SDS011;36794;51.212;6.980;2023-07-13T06:31:12;8.93;;;1.77;;
50821;SDS011;36794;51.212;6.980;2023-07-13T06:33:38;12.32;;;1.95;;
50821;SDS011;36794;51.212;6.980;2023-07-13T06:36:05;9.05;;;1.80;;
50821;SDS011;36794;51.212;6.980;2023-07-13T06:38:32;11.55;;;2.30;;
50821;SDS011;36794;51.212;6.980;2023-07-13T06:40:57;9.15;;;1.88;;
50821;SDS011;36794;51.212;6.980;2023-07-13T06:43:23;9.10;;;1.60;;
50821;SDS011;36794;51.212;6.980;2023-07-13T06:45:50;13.30;;;1.80;;
50821;SDS011;36794;51.212;6.980;2023-07-13T06:48:16;12.45;;;2.22;;
50821;SDS011;36794;51.212;6.980;2023-07-13T06:50:43;14.32;;;1.83;;
50821;SDS011;36794;51.212;6.980;2023-07-13T06:53:12;11.77;;;2.25;;
50821;SDS011;36794;51.212;6.980;2023-07-13T06:55:38;11.25;;;2.63;;
50821;SDS011;36794;51.212;6.980;2023-07-13T06:58:04;10.40;;;1.95;;
50821;SDS011;36794;51.212;6.980;2023-07-13T07:00:31;14.25;;;1.98;;
50821;SDS011;36794;51.212;6.980;2023-07-13T07:02:57;9.25;;;1.80;;
50821;SDS011;36794;51.212;6.980;2023-07-13T07:05:22;10.02;;;2.10;;
50821;SDS011;36794;51.212;6.980;2023-07-13T07:07:54;10.90;;;1.83;;
50821;SDS011;36794;51.212;6.980;2023-07-13T07:10:21;16.73;;;2.40;;
50821;SDS011;36794;51.212;6.980;2023-07-13T07:12:47;14.52;;;2.13;;
50821;SDS011;36794;51.212;6.980;2023-07-13T07:15:13;8.60;;;2.00;;
50821;SDS011;36794;51.212;6.980;2023-07-13T07:17:39;10.70;;;1.80;;
50821;SDS011;36794;51.212;6.980;2023-07-13T07:20:06;10.27;;;2.08;;
50821;SDS011;36794;51.212;6.980;2023-07-13T07:22:32;11.70;;;1.88;;
50821;SDS011;36794;51.212;6.980;2023-07-13T07:24:58;11.60;;;2.00;;
50821;SDS011;36794;51.212;6.980;2023-07-13T07:27:24;8.98;;;1.50;;
50821;SDS011;36794;51.212;6.980;2023-07-13T07:29:50;8.27;;;2.05;;
50821;SDS011;36794;51.212;6.980;2023-07-13T07:32:17;8.98;;;2.30;;
50821;SDS011;36794;51.212;6.980;2023-07-13T07:34:43;10.63;;;2.15;;
50821;SDS011;36794;51.212;6.980;2023-07-13T07:37:09;9.90;;;2.00;;
50821;SDS011;36794;51.212;6.980;2023-07-13T07:39:36;9.85;;;2.25;;
50821;SDS011;36794;51.212;6.980;2023-07-13T07:42:03;14.80;;;2.08;;
50821;SDS011;36794;51.212;6.980;2023-07-13T07:44:30;9.95;;;1.95;;
50821;SDS011;36794;51.212;6.980;2023-07-13T07:46:56;10.57;;;2.00;;
50821;SDS011;36794;51.212;6.980;2023-07-13T07:49:22;9.75;;;2.40;;
50821;SDS011;36794;51.212;6.980;2023-07-13T07:51:48;12.75;;;2.60;;
50821;SDS011;36794;51.212;6.980;2023-07-13T07:54:14;12.88;;;2.53;;
50821;SDS011;36794;51.212;6.980;2023-07-13T07:56:40;10.18;;;2.42;;
50821;SDS011;36794;51.212;6.980;2023-07-13T07:59:06;9.98;;;2.65;;
50821;SDS011;36794;51.212;6.980;2023-07-13T08:01:32;14.30;;;2.55;;
50821;SDS011;36794;51.212;6.980;2023-07-13T08:03:59;8.95;;;2.38;;
50821;SDS011;36794;51.212;6.980;2023-07-13T08:06:25;11.13;;;2.58;;
50821;SDS011;36794;51.212;6.980;2023-07-13T08:08:51;11.90;;;2.83;;
50821;SDS011;36794;51.212;6.980;2023-07-13T08:11:17;9.50;;;2.17;;
50821;SDS011;36794;51.212;6.980;2023-07-13T08:13:43;10.77;;;2.65;;
50821;SDS011;36794;51.212;6.980;2023-07-13T08:16:09;11.80;;;2.70;;
50821;SDS011;36794;51.212;6.980;2023-07-13T08:18:36;14.18;;;2.72;;
50821;SDS011;36794;51.212;6.980;2023-07-13T08:21:03;10.23;;;2.33;;
50821;SDS011;36794;51.212;6.980;2023-07-13T08:23:29;9.73;;;1.95;;
50821;SDS011;36794;51.212;6.980;2023-07-13T08:25:55;13.93;;;2.20;;
50821;SDS011;36794;51.212;6.980;2023-07-13T08:28:22;13.40;;;2.35;;
50821;SDS011;36794;51.212;6.980;2023-07-13T08:30:48;12.00;;;2.58;;
50821;SDS011;36794;51.212;6.980;2023-07-13T08:33:17;18.83;;;3.25;;
50821;SDS011;36794;51.212;6.980;2023-07-13T08:35:47;6.97;;;2.13;;
50821;SDS011;36794;51.212;6.980;2023-07-13T08:38:14;10.82;;;1.92;;
50821;SDS011;36794;51.212;6.980;2023-07-13T08:40:40;10.60;;;2.83;;
50821;SDS011;36794;51.212;6.980;2023-07-13T08:43:09;15.07;;;2.35;;
50821;SDS011;36794;51.212;6.980;2023-07-13T08:45:43;10.10;;;2.35;;
50821;SDS011;36794;51.212;6.980;2023-07-13T08:56:16;10.07;;;2.45;;
50821;SDS011;36794;51.212;6.980;2023-07-13T08:58:43;9.55;;;2.33;;
50821;SDS011;36794;51.212;6.980;2023-07-13T09:03:37;13.88;;;2.47;;
50821;SDS011;36794;51.212;6.980;2023-07-13T09:06:06;9.77;;;1.85;;
50821;SDS011;36794;51.212;6.980;2023-07-13T09:08:57;17.60;;;2.50;;
50821;SDS011;36794;51.212;6.980;2023-07-13T09:11:43;13.20;;;2.30;;
50821;SDS011;36794;51.212;6.980;2023-07-13T09:16:46;12.25;;;2.08;;
50821;SDS011;36794;51.212;6.980;2023-07-13T09:19:16;10.85;;;2.03;;
50821;SDS011;36794;51.212;6.980;2023-07-13T09:21:43;9.80;;;2.25;;
50821;SDS011;36794;51.212;6.980;2023-07-13T09:24:27;6.70;;;2.13;;
50821;SDS011;36794;51.212;6.980;2023-07-13T09:26:54;10.73;;;1.83;;
50821;SDS011;36794;51.212;6.980;2023-07-13T09:29:22;12.23;;;2.05;;
50821;SDS011;36794;51.212;6.980;2023-07-13T09:31:52;8.85;;;1.98;;
50821;SDS011;36794;51.212;6.980;2023-07-13T09:34:19;10.77;;;2.08;;
50821;SDS011;36794;51.212;6.980;2023-07-13T09:36:45;11.48;;;2.20;;
50821;SDS011;36794;51.212;6.980;2023-07-13T09:41:48;9.25;;;1.80;;
50821;SDS011;36794;51.212;6.980;2023-07-13T09:44:27;9.18;;;1.75;;
50821;SDS011;36794;51.212;6.980;2023-07-13T09:46:55;8.52;;;1.88;;
50821;SDS011;36794;51.212;6.980;2023-07-13T09:49:25;7.88;;;2.25;;
50821;SDS011;36794;51.212;6.980;2023-07-13T09:51:57;12.25;;;1.92;;
50821;SDS011;36794;51.212;6.980;2023-07-13T09:54:24;11.43;;;2.30;;
50821;SDS011;36794;51.212;6.980;2023-07-13T09:56:57;13.23;;;2.28;;
50821;SDS011;36794;51.212;6.980;2023-07-13T09:59:26;15.68;;;1.95;;
50821;SDS011;36794;51.212;6.980;2023-07-13T10:01:52;12.48;;;2.08;;
50821;SDS011;36794;51.212;6.980;2023-07-13T10:04:19;9.55;;;2.30;;
50821;SDS011;36794;51.212;6.980;2023-07-13T10:06:46;6.82;;;1.42;;
50821;SDS011;36794;51.212;6.980;2023-07-13T10:09:16;7.95;;;1.98;;
50821;SDS011;36794;51.212;6.980;2023-07-13T10:11:43;11.98;;;2.13;;
50821;SDS011;36794;51.212;6.980;2023-07-13T10:14:11;8.30;;;1.50;;
50821;SDS011;36794;51.212;6.980;2023-07-13T10:16:38;10.82;;;1.55;;
50821;SDS011;36794;51.212;6.980;2023-07-13T10:19:14;7.07;;;1.92;;
50821;SDS011;36794;51.212;6.980;2023-07-13T10:21:50;7.93;;;1.63;;
50821;SDS011;36794;51.212;6.980;2023-07-13T10:24:21;7.13;;;1.60;;
50821;SDS011;36794;51.212;6.980;2023-07-13T10:26:52;7.57;;;1.63;;
50821;SDS011;36794;51.212;6.980;2023-07-13T10:29:20;5.65;;;1.60;;
50821;SDS011;36794;51.212;6.980;2023-07-13T10:31:48;15.70;;;2.08;;
50821;SDS011;36794;51.212;6.980;2023-07-13T10:34:15;8.60;;;1.88;;
50821;SDS011;36794;51.212;6.980;2023-07-13T10:36:47;8.38;;;1.58;;
50821;SDS011;36794;51.212;6.980;2023-07-13T10:39:24;10.70;;;1.67;;
50821;SDS011;36794;51.212;6.980;2023-07-13T10:41:53;9.35;;;1.88;;
50821;SDS011;36794;51.212;6.980;2023-07-13T10:44:24;8.20;;;1.50;;
50821;SDS011;36794;51.212;6.980;2023-07-13T10:46:54;6.20;;;1.73;;
50821;SDS011;36794;51.212;6.980;2023-07-13T10:49:20;6.95;;;1.60;;
50821;SDS011;36794;51.212;6.980;2023-07-13T10:51:47;20.38;;;1.70;;
50821;SDS011;36794;51.212;6.980;2023-07-13T10:54:17;8.80;;;1.85;;
50821;SDS011;36794;51.212;6.980;2023-07-13T10:56:44;11.18;;;2.00;;
50821;SDS011;36794;51.212;6.980;2023-07-13T10:59:15;10.60;;;1.70;;
50821;SDS011;36794;51.212;6.980;2023-07-13T11:01:48;7.80;;;1.60;;
50821;SDS011;36794;51.212;6.980;2023-07-13T11:04:14;6.25;;;1.75;;
50821;SDS011;36794;51.212;6.980;2023-07-13T11:06:41;13.70;;;2.25;;
50821;SDS011;36794;51.212;6.980;2023-07-13T11:09:18;8.50;;;1.92;;
50821;SDS011;36794;51.212;6.980;2023-07-13T11:22:09;8.43;;;2.13;;
50821;SDS011;36794;51.212;6.980;2023-07-13T11:27:37;8.82;;;1.80;;
50821;SDS011;36794;51.212;6.980;2023-07-13T11:30:23;5.15;;;1.23;;
50821;SDS011;36794;51.212;6.980;2023-07-13T11:35:37;6.50;;;1.90;;
50821;SDS011;36794;51.212;6.980;2023-07-13T11:38:09;9.23;;;1.27;;
50821;SDS011;36794;51.212;6.980;2023-07-13T11:40:38;9.07;;;1.88;;
50821;SDS011;36794;51.212;6.980;2023-07-13T11:43:04;7.90;;;1.50;;
50821;SDS011;36794;51.212;6.980;2023-07-13T11:45:32;12.73;;;1.60;;
50821;SDS011;36794;51.212;6.980;2023-07-13T11:47:59;12.23;;;1.63;;
50821;SDS011;36794;51.212;6.980;2023-07-13T11:50:26;17.80;;;1.92;;
50821;SDS011;36794;51.212;6.980;2023-07-13T11:52:52;7.72;;;1.80;;
50821;SDS011;36794;51.212;6.980;2023-07-13T11:55:21;7.03;;;1.50;;
50821;SDS011;36794;51.212;6.980;2023-07-13T11:57:50;8.13;;;1.52;;
50821;SDS011;36794;51.212;6.980;2023-07-13T12:00:18;7.45;;;1.50;;
50821;SDS011;36794;51.212;6.980;2023-07-13T12:02:51;8.20;;;1.77;;
50821;SDS011;36794;51.212;6.980;2023-07-13T12:05:18;8.38;;;1.60;;
50821;SDS011;36794;51.212;6.980;2023-07-13T12:07:45;5.72;;;1.20;;
50821;SDS011;36794;51.212;6.980;2023-07-13T12:10:25;8.18;;;1.33;;
50821;SDS011;36794;51.212;6.980;2023-07-13T12:12:55;11.23;;;1.63;;
50821;SDS011;36794;51.212;6.980;2023-07-13T12:15:22;10.18;;;1.30;;
50821;SDS011;36794;51.212;6.980;2023-07-13T12:17:48;7.80;;;1.40;;
50821;SDS011;36794;51.212;6.980;2023-07-13T12:20:17;4.05;;;1.15;;
50821;SDS011;36794;51.212;6.980;2023-07-13T12:22:48;6.22;;;1.25;;
50821;SDS011;36794;51.212;6.980;2023-07-13T12:25:15;10.68;;;1.80;;
50821;SDS011;36794;51.212;6.980;2023-07-13T12:27:42;7.63;;;1.23;;
50821;SDS011;36794;51.212;6.980;2023-07-13T12:30:31;7.93;;;1.55;;
50821;SDS011;36794;51.212;6.980;2023-07-13T12:33:08;6.18;;;1.17;;
50821;SDS011;36794;51.212;6.980;2023-07-13T12:35:46;6.20;;;1.30;;
50821;SDS011;36794;51.212;6.980;2023-07-13T12:38:12;10.25;;;1.58;;
50821;SDS011;36794;51.212;6.980;2023-07-13T12:40:39;6.50;;;1.48;;
50821;SDS011;36794;51.212;6.980;2023-07-13T12:43:09;8.88;;;1.40;;
50821;SDS011;36794;51.212;6.980;2023-07-13T12:45:36;4.82;;;1.00;;
50821;SDS011;36794;51.212;6.980;2023-07-13T12:48:10;8.82;;;1.60;;
50821;SDS011;36794;51.212;6.980;2023-07-13T12:50:47;5.25;;;1.20;;
50821;SDS011;36794;51.212;6.980;2023-07-13T12:53:14;7.03;;;1.20;;
50821;SDS011;36794;51.212;6.980;2023-07-13T12:58:13;8.15;;;1.20;;
50821;SDS011;36794;51.212;6.980;2023-07-13T13:00:47;7.70;;;1.20;;
50821;SDS011;36794;51.212;6.980;2023-07-13T13:05:49;6.05;;;1.42;;
50821;SDS011;36794;51.212;6.980;2023-07-13T13:08:15;3.90;;;1.05;;
50821;SDS011;36794;51.212;6.980;2023-07-13T13:10:41;7.93;;;1.30;;
50821;SDS011;36794;51.212;6.980;2023-07-13T13:13:07;5.72;;;0.90;;
50821;SDS011;36794;51.212;6.980;2023-07-13T13:15:33;5.85;;;1.10;;
50821;SDS011;36794;51.212;6.980;2023-07-13T13:17:59;7.75;;;1.33;;
50821;SDS011;36794;51.212;6.980;2023-07-13T13:20:25;10.40;;;1.50;;
50821;SDS011;36794;51.212;6.980;2023-07-13T13:22:52;6.57;;;1.38;;
50821;SDS011;36794;51.212;6.980;2023-07-13T13:25:18;3.75;;;0.70;;
50821;SDS011;36794;51.212;6.980;2023-07-13T13:27:45;8.07;;;1.00;;
50821;SDS011;36794;51.212;6.980;2023-07-13T13:30:12;7.18;;;1.20;;
50821;SDS011;36794;51.212;6.980;2023-07-13T13:32:45;4.25;;;1.35;;
50821;SDS011;36794;51.212;6.980;2023-07-13T13:35:15;3.55;;;1.00;;
50821;SDS011;36794;51.212;6.980;2023-07-13T13:37:42;7.47;;;1.33;;
50821;SDS011;36794;51.212;6.980;2023-07-13T13:40:18;8.10;;;1.25;;
50821;SDS011;36794;51.212;6.980;2023-07-13T13:42:45;6.03;;;1.58;;
50821;SDS011;36794;51.212;6.980;2023-07-13T13:45:11;4.15;;;0.95;;
50821;SDS011;36794;51.212;6.980;2023-07-13T13:47:43;4.90;;;1.15;;
50821;SDS011;36794;51.212;6.980;2023-07-13T13:50:19;7.70;;;1.17;;
50821;SDS011;36794;51.212;6.980;2023-07-13T13:52:47;7.03;;;1.65;;
50821;SDS011;36794;51.212;6.980;2023-07-13T13:55:14;7.88;;;0.88;;
50821;SDS011;36794;51.212;6.980;2023-07-13T13:57:40;6.82;;;1.40;;
50821;SDS011;36794;51.212;6.980;2023-07-13T14:00:08;6.57;;;1.73;;
50821;SDS011;36794;51.212;6.980;2023-07-13T14:02:34;5.38;;;1.50;;
50821;SDS011;36794;51.212;6.980;2023-07-13T14:05:03;6.72;;;1.08;;
50821;SDS011;36794;51.212;6.980;2023-07-13T14:07:30;7.45;;;0.90;;
50821;SDS011;36794;51.212;6.980;2023-07-13T14:09:57;4.93;;;1.20;;
50821;SDS011;36794;51.212;6.980;2023-07-13T14:12:24;6.28;;;1.25;;
50821;SDS011;36794;51.212;6.980;2023-07-13T14:14:53;10.95;;;1.67;;
50821;SDS011;36794;51.212;6.980;2023-07-13T14:17:20;4.68;;;1.15;;
50821;SDS011;36794;51.212;6.980;2023-07-13T14:19:47;7.20;;;1.10;;
50821;SDS011;36794;51.212;6.980;2023-07-13T14:22:15;7.43;;;1.23;;
50821;SDS011;36794;51.212;6.980;2023-07-13T14:24:42;10.18;;;1.23;;
50821;SDS011;36794;51.212;6.980;2023-07-13T14:27:09;8.25;;;1.38;;
50821;SDS011;36794;51.212;6.980;2023-07-13T14:29:36;7.57;;;1.70;;
50821;SDS011;36794;51.212;6.980;2023-07-13T14:32:02;8.23;;;0.98;;
50821;SDS011;36794;51.212;6.980;2023-07-13T14:34:29;3.28;;;0.98;;
50821;SDS011;36794;51.212;6.980;2023-07-13T14:36:55;5.47;;;0.95;;
50821;SDS011;36794;51.212;6.980;2023-07-13T14:39:24;6.68;;;1.73;;
50821;SDS011;36794;51.212;6.980;2023-07-13T14:41:51;5.95;;;1.10;;
50821;SDS011;36794;51.212;6.980;2023-07-13T14:44:19;17.52;;;1.60;;
50821;SDS011;36794;51.212;6.980;2023-07-13T14:46:46;4.97;;;1.35;;
50821;SDS011;36794;51.212;6.980;2023-07-13T14:52:15;4.93;;;1.10;;
50821;SDS011;36794;51.212;6.980;2023-07-13T14:54:41;6.20;;;1.20;;
50821;SDS011;36794;51.212;6.980;2023-07-13T14:57:09;7.30;;;1.23;;
50821;SDS011;36794;51.212;6.980;2023-07-13T14:59:35;4.80;;;1.20;;
50821;SDS011;36794;51.212;6.980;2023-07-13T15:02:01;6.63;;;1.17;;
50821;SDS011;36794;51.212;6.980;2023-07-13T15:04:27;10.55;;;1.35;;
50821;SDS011;36794;51.212;6.980;2023-07-13T15:06:56;5.07;;;1.42;;
50821;SDS011;36794;51.212;6.980;2023-07-13T15:09:25;4.13;;;0.93;;
50821;SDS011;36794;51.212;6.980;2023-07-13T15:11:52;7.05;;;1.20;;
50821;SDS011;36794;51.212;6.980;2023-07-13T15:14:18;3.33;;;1.10;;
50821;SDS011;36794;51.212;6.980;2023-07-13T15:16:44;7.10;;;1.40;;
50821;SDS011;36794;51.212;6.980;2023-07-13T15:19:10;7.15;;;1.30;;
50821;SDS011;36794;51.212;6.980;2023-07-13T15:21:36;5.18;;;1.60;;
50821;SDS011;36794;51.212;6.980;2023-07-13T15:24:02;6.38;;;1.60;;
50821;SDS011;36794;51.212;6.980;2023-07-13T15:26:28;7.45;;;1.70;;